Time;durP1;ratioP1;P1;durP2;ratioP2;P2;SDS_P1;SDS_P2;PMS_P1;PMS_P2;Temp;Humidity;BMP_temperature;BMP_pressure;BME280_temperature;BME280_humidity;BME280_pressure;Samples;Min_cycle;Max_cycle;Signal;HPM_P1;HPM_P2
2022/05/25 00:00:25;;;;;;;;;;;;;;;28.99;30.08;100780.38;5076504;28;1484;-39
2022/05/25 00:02:51;;;;;;;;;;;;;;;28.97;30.46;100783.28;5077521;28;949;-39
2022/05/25 00:05:16;;;;;;;;;;;;;;;28.95;29.92;100782.59;5077740;28;853;-39
2022/05/25 00:07:42;;;;;;;;;;;;;;;28.97;29.31;100775.16;5078007;28;766;-39
2022/05/25 00:10:07;;;;;;;;;;;;;;;29.05;29.64;100782.28;5077585;28;1959;-39
2022/05/25 00:12:33;;;;;;;;;;;;;;;29.08;30.11;100788.16;5077108;28;823;-39
2022/05/25 00:14:58;;;;;;;;;;;;;;;29.02;30.10;100791.66;5077333;28;936;-39
2022/05/25 00:17:23;;;;;;;;;;;;;;;28.99;30.26;100788.50;5077156;28;972;-39
2022/05/25 00:20:00;;;;;;;;;;;;;;;28.96;29.09;100784.28;5077425;28;770;-40
2022/05/25 00:22:26;;;;;;;;;;;;;;;28.98;30.01;100781.41;5077583;28;817;-39
2022/05/25 00:24:54;;;;;;;;;;;;;;;28.91;30.08;100784.84;5077464;28;923;-39
2022/05/25 00:27:20;;;;;;;;;;;;;;;28.91;29.97;100784.84;5076607;28;1475;-39
2022/05/25 00:29:45;;;;;;;;;;;;;;;28.89;29.99;100777.97;5077489;28;1967;-39
2022/05/25 00:32:10;;;;;;;;;;;;;;;28.96;29.86;100776.16;5076690;28;886;-39
2022/05/25 00:34:35;;;;;;;;;;;;;;;29.02;29.66;100778.09;5077103;28;818;-39
2022/05/25 00:37:01;;;;;;;;;;;;;;;28.95;29.20;100779.88;5077219;28;945;-39
2022/05/25 00:39:26;;;;;;;;;;;;;;;28.98;29.70;100786.81;5076648;28;809;-39
2022/05/25 00:41:52;;;;;;;;;;;;;;;29.03;29.63;100781.66;5077209;28;927;-39
2022/05/25 00:44:17;;;;;;;;;;;;;;;29.00;29.69;100787.44;5076569;28;837;-39
2022/05/25 00:46:42;;;;;;;;;;;;;;;28.95;29.65;100788.00;5076683;28;915;-39
2022/05/25 00:49:12;;;;;;;;;;;;;;;28.97;29.44;100780.56;5076993;28;1955;-39
2022/05/25 00:51:44;;;;;;;;;;;;;;;29.00;29.31;100780.16;5058588;28;848;-39
2022/05/25 00:54:20;;;;;;;;;;;;;;;28.89;29.63;100781.50;5070280;28;885;-39
2022/05/25 00:56:46;;;;;;;;;;;;;;;28.92;29.51;100778.41;5053678;28;742;-39
2022/05/25 00:59:16;;;;;;;;;;;;;;;28.98;29.13;100784.94;5076634;28;844;-39
2022/05/25 01:01:41;;;;;;;;;;;;;;;28.92;29.83;100778.41;5058704;28;979;-39
2022/05/25 01:04:07;;;;;;;;;;;;;;;28.96;29.37;100781.56;5076327;28;797;-39
2022/05/25 01:06:38;;;;;;;;;;;;;;;28.93;29.37;100777.38;5076341;28;753;-39
2022/05/25 01:09:15;;;;;;;;;;;;;;;28.92;29.05;100782.97;5058788;28;1960;-40
2022/05/25 01:11:59;;;;;;;;;;;;;;;28.88;29.69;100785.22;5076545;28;830;-39
2022/05/25 01:14:24;;;;;;;;;;;;;;;28.95;28.79;100785.28;5076097;28;936;-39
2022/05/25 01:17:21;;;;;;;;;;;;;;;28.92;29.61;100775.72;5075555;28;917;-39
2022/05/25 01:19:49;;;;;;;;;;;;;;;28.95;29.41;100772.59;5031623;28;1397;-39
2022/05/25 01:22:21;;;;;;;;;;;;;;;28.98;29.20;100781.41;5076111;28;830;-39
2022/05/25 01:24:49;;;;;;;;;;;;;;;28.99;29.10;100777.66;5076165;28;873;-40
2022/05/25 01:27:26;;;;;;;;;;;;;;;29.03;28.81;100778.97;5076451;28;1028;-39
2022/05/25 01:30:10;;;;;;;;;;;;;;;28.87;28.90;100775.44;5075821;28;1906;-39
2022/05/25 01:32:54;;;;;;;;;;;;;;;28.70;29.57;100780.28;5075949;28;821;-39
2022/05/25 01:35:35;;;;;;;;;;;;;;;28.81;29.46;100779.75;5069838;28;861;-39
2022/05/25 01:38:08;;;;;;;;;;;;;;;28.92;29.20;100783.84;5058464;28;798;-38
2022/05/25 01:40:44;;;;;;;;;;;;;;;29.00;29.63;100784.75;5058873;28;857;-39
2022/05/25 01:43:14;;;;;;;;;;;;;;;29.00;29.64;100788.28;5058143;28;754;-39
2022/05/25 01:45:42;;;;;;;;;;;;;;;29.04;29.80;100792.31;5057363;28;857;-38
2022/05/25 01:48:07;;;;;;;;;;;;;;;28.95;29.85;100780.72;5057828;28;901;-39
2022/05/25 01:50:34;;;;;;;;;;;;;;;29.00;29.88;100787.44;5057725;28;1897;-39
2022/05/25 01:52:59;;;;;;;;;;;;;;;28.90;29.72;100783.19;5057924;28;775;-39
2022/05/25 01:55:26;;;;;;;;;;;;;;;29.05;29.94;100783.13;5057571;28;812;-39
2022/05/25 01:57:52;;;;;;;;;;;;;;;29.06;30.09;100782.09;5057351;28;883;-39
2022/05/25 02:00:34;;;;;;;;;;;;;;;29.02;29.89;100782.69;5057804;28;871;-39
2022/05/25 02:05:47;;;;;;;;;;;;;;;29.05;29.97;100785.00;5069252;28;632;-39
2022/05/25 02:08:16;;;;;;;;;;;;;;;29.00;30.01;100791.00;5069149;28;1910;-39
2022/05/25 02:10:49;;;;;;;;;;;;;;;29.16;29.59;100794.47;5058263;28;885;-39
2022/05/25 02:13:23;;;;;;;;;;;;;;;29.11;30.20;100794.22;5062115;28;817;-39
2022/05/25 02:16:03;;;;;;;;;;;;;;;29.05;30.08;100793.13;5079303;28;860;-39
2022/05/25 02:18:35;;;;;;;;;;;;;;;29.05;29.81;100801.25;5079855;28;766;-40
2022/05/25 02:21:00;;;;;;;;;;;;;;;29.08;30.07;100795.44;5079248;28;734;-38
2022/05/25 02:23:27;;;;;;;;;;;;;;;28.98;30.10;100806.59;5079544;28;889;-39
2022/05/25 02:26:00;;;;;;;;;;;;;;;29.04;30.21;100803.13;5079222;28;1004;-39
2022/05/25 02:28:45;;;;;;;;;;;;;;;29.03;29.87;100804.16;5061702;28;1967;-38
2022/05/25 02:31:12;;;;;;;;;;;;;;;29.07;29.86;100804.59;5072939;28;707;-39
2022/05/25 02:33:38;;;;;;;;;;;;;;;28.98;29.56;100801.19;5072319;28;846;-39
2022/05/25 02:36:04;;;;;;;;;;;;;;;29.11;29.81;100797.78;5061435;28;753;-39
2022/05/25 02:38:29;;;;;;;;;;;;;;;29.05;30.11;100809.38;5061484;28;909;-39
2022/05/25 02:41:04;;;;;;;;;;;;;;;29.05;30.23;100807.50;5079848;28;777;-39
2022/05/25 02:43:30;;;;;;;;;;;;;;;28.95;30.23;100810.50;5072701;28;833;-39
2022/05/25 02:45:55;;;;;;;;;;;;;;;29.03;30.22;100814.16;5078799;28;861;-40
2022/05/25 02:48:20;;;;;;;;;;;;;;;29.06;30.15;100816.47;5061279;28;1961;-39
2022/05/25 02:50:46;;;;;;;;;;;;;;;29.13;30.19;100809.22;5079222;28;770;-39
2022/05/25 02:53:11;;;;;;;;;;;;;;;29.09;30.07;100810.66;5079698;28;802;-39
2022/05/25 02:55:37;;;;;;;;;;;;;;;29.04;30.08;100813.13;5078881;28;765;-39
2022/05/25 02:58:02;;;;;;;;;;;;;;;29.10;30.18;100823.16;5078536;28;856;-39
2022/05/25 03:00:28;;;;;;;;;;;;;;;29.03;30.33;100816.88;5078708;28;1047;-39
2022/05/25 03:02:54;;;;;;;;;;;;;;;29.02;30.64;100823.31;5079026;28;934;-39
2022/05/25 03:05:20;;;;;;;;;;;;;;;29.00;30.57;100828.91;5078520;28;848;-39
2022/05/25 03:07:45;;;;;;;;;;;;;;;29.00;30.13;100822.66;5079029;28;868;-39
2022/05/25 03:10:10;;;;;;;;;;;;;;;28.95;30.40;100834.03;5078412;28;1952;-39
2022/05/25 03:12:36;;;;;;;;;;;;;;;29.01;30.50;100832.47;5078450;28;837;-39
2022/05/25 03:15:01;;;;;;;;;;;;;;;29.11;30.37;100834.84;5078582;28;877;-39
2022/05/25 03:17:26;;;;;;;;;;;;;;;29.07;30.74;100837.94;5078119;28;952;-39
2022/05/25 03:19:52;;;;;;;;;;;;;;;28.99;30.86;100840.78;5078773;28;798;-39
2022/05/25 03:22:17;;;;;;;;;;;;;;;28.91;31.01;100847.13;5078695;28;804;-38
2022/05/25 03:24:43;;;;;;;;;;;;;;;28.76;31.71;100849.88;5059768;28;1179;-39
2022/05/25 03:27:08;;;;;;;;;;;;;;;28.75;32.07;100859.03;5077974;28;1222;-39
2022/05/25 03:29:33;;;;;;;;;;;;;;;28.67;31.92;100860.00;5078390;28;1914;-39
2022/05/25 03:32:00;;;;;;;;;;;;;;;28.67;32.09;100854.59;5076784;28;1214;-42
2022/05/25 03:34:26;;;;;;;;;;;;;;;27.88;32.09;100859.59;5078462;28;939;-43
2022/05/25 03:36:54;;;;;;;;;;;;;;;27.01;33.66;100852.56;5077224;28;1584;-42
2022/05/25 03:39:22;;;;;;;;;;;;;;;26.69;33.37;100857.13;5078431;28;773;-43
2022/05/25 03:41:47;;;;;;;;;;;;;;;26.38;34.37;100856.09;5078452;28;806;-43
2022/05/25 03:44:12;;;;;;;;;;;;;;;26.33;34.13;100855.78;5077925;28;866;-42
2022/05/25 03:46:38;;;;;;;;;;;;;;;26.25;34.51;100851.25;5059427;28;832;-43
2022/05/25 03:49:03;;;;;;;;;;;;;;;26.12;35.18;100856.34;5078139;28;1977;-42
2022/05/25 03:51:28;;;;;;;;;;;;;;;25.82;36.14;100861.47;5077923;28;829;-42
2022/05/25 03:53:53;;;;;;;;;;;;;;;25.80;36.21;100859.81;5078500;28;1028;-42
2022/05/25 03:56:19;;;;;;;;;;;;;;;25.45;36.59;100867.22;5077411;28;1409;-44
2022/05/25 03:58:46;;;;;;;;;;;;;;;25.27;36.05;100865.53;5077658;28;722;-44
2022/05/25 04:01:11;;;;;;;;;;;;;;;24.84;37.65;100868.28;5077379;28;975;-43
2022/05/25 04:03:37;;;;;;;;;;;;;;;24.83;38.54;100863.91;5077413;28;809;-44
2022/05/25 04:06:02;;;;;;;;;;;;;;;24.79;38.58;100860.72;5076747;28;805;-42
2022/05/25 04:08:27;;;;;;;;;;;;;;;25.17;37.19;100876.44;5077764;28;1959;-43
2022/05/25 04:10:53;;;;;;;;;;;;;;;25.29;37.87;100879.66;5077496;28;908;-43
2022/05/25 04:13:20;;;;;;;;;;;;;;;23.74;36.02;100870.59;5077804;28;803;-41
2022/05/25 04:15:45;;;;;;;;;;;;;;;22.79;35.10;100862.03;5059087;28;861;-41
2022/05/25 04:18:10;;;;;;;;;;;;;;;22.48;39.36;100865.84;5077582;28;731;-41
2022/05/25 04:20:36;;;;;;;;;;;;;;;22.30;41.45;100873.84;5077189;28;786;-43
2022/05/25 04:23:02;;;;;;;;;;;;;;;21.82;42.89;100871.13;5059461;28;921;-43
2022/05/25 04:25:27;;;;;;;;;;;;;;;21.93;42.62;100874.66;5076987;28;950;-42
2022/05/25 04:27:53;;;;;;;;;;;;;;;21.98;43.34;100867.88;5076286;28;1277;-43
2022/05/25 04:30:20;;;;;;;;;;;;;;;21.56;43.98;100866.38;5076740;28;1984;-43
2022/05/25 04:32:45;;;;;;;;;;;;;;;21.63;44.48;100867.50;5070970;28;811;-44
2022/05/25 04:35:11;;;;;;;;;;;;;;;21.36;45.96;100862.84;5076739;28;817;-42
2022/05/25 04:40:30;;;;;;;;;;;;;;;21.40;47.36;100873.13;5071183;28;762;-52
2022/05/25 04:42:56;;;;;;;;;;;;;;;21.28;47.92;100880.47;5077213;28;798;-55
2022/05/25 04:45:21;;;;;;;;;;;;;;;22.12;48.36;100876.44;5076560;28;833;-58
2022/05/25 04:47:47;;;;;;;;;;;;;;;22.70;47.85;100879.03;5076323;28;810;-60
2022/05/25 04:50:12;;;;;;;;;;;;;;;22.89;47.23;100870.00;5076992;28;1902;-62
2022/05/25 04:52:38;;;;;;;;;;;;;;;22.68;47.37;100876.50;5076460;28;852;-62
2022/05/25 04:55:04;;;;;;;;;;;;;;;22.45;48.83;100881.38;5076936;28;817;-58
2022/05/25 04:57:29;;;;;;;;;;;;;;;22.51;47.95;100889.69;5076741;28;832;-56
2022/05/25 04:59:59;;;;;;;;;;;;;;;22.88;47.03;100897.84;5076756;28;769;-59
2022/05/25 05:02:24;;;;;;;;;;;;;;;23.04;47.10;100891.78;5070799;28;956;-59
2022/05/25 05:04:49;;;;;;;;;;;;;;;22.49;47.92;100894.34;5076873;28;845;-57
2022/05/25 05:07:15;;;;;;;;;;;;;;;21.78;47.68;100899.22;5075552;28;1069;-62
2022/05/25 05:09:41;;;;;;;;;;;;;;;21.53;48.72;100896.09;5067426;28;1902;-60
2022/05/25 05:12:07;;;;;;;;;;;;;;;20.30;51.93;100902.44;5076300;28;802;-45
2022/05/25 05:14:32;;;;;;;;;;;;;;;19.98;54.55;100900.66;5076474;28;774;-47
2022/05/25 05:16:58;;;;;;;;;;;;;;;21.05;51.36;100906.66;5075856;28;854;-42
2022/05/25 05:19:24;;;;;;;;;;;;;;;20.52;51.35;100917.41;5075735;28;877;-44
2022/05/25 05:21:50;;;;;;;;;;;;;;;21.57;51.79;100918.09;5076278;28;754;-44
2022/05/25 05:24:15;;;;;;;;;;;;;;;21.43;50.69;100920.19;5076319;28;1079;-45
2022/05/25 05:26:40;;;;;;;;;;;;;;;21.35;51.53;100922.72;5076251;28;1252;-51
2022/05/25 05:29:06;;;;;;;;;;;;;;;20.19;54.52;100919.38;5076374;28;1974;-50
2022/05/25 05:31:31;;;;;;;;;;;;;;;19.49;57.58;100922.50;5057364;28;1151;-49
2022/05/25 05:33:56;;;;;;;;;;;;;;;19.99;57.10;100923.72;5075343;28;1057;-50
2022/05/25 05:36:23;;;;;;;;;;;;;;;21.83;53.43;100930.91;5074647;28;1199;-46
2022/05/25 05:39:04;;;;;;;;;;;;;;;23.65;45.76;100923.44;5058274;28;801;-50
2022/05/25 05:41:31;;;;;;;;;;;;;;;24.19;42.14;100925.16;5075932;28;1341;-50
2022/05/25 05:43:56;;;;;;;;;;;;;;;24.25;44.08;100928.22;5069250;28;1043;-52
2022/05/25 05:46:21;;;;;;;;;;;;;;;24.73;41.31;100930.47;5055533;28;1414;-49
2022/05/25 05:48:46;;;;;;;;;;;;;;;24.93;42.38;100933.75;5056793;28;1902;-44
2022/05/25 05:51:12;;;;;;;;;;;;;;;25.25;40.11;100926.78;5073458;28;924;-47
2022/05/25 05:53:37;;;;;;;;;;;;;;;25.30;39.39;100939.75;5057852;28;922;-50
2022/05/25 05:56:03;;;;;;;;;;;;;;;25.08;42.55;100942.03;5058401;28;789;-45
2022/05/25 05:58:28;;;;;;;;;;;;;;;25.42;39.96;100951.84;5057355;28;1157;-46
2022/05/25 06:00:54;;;;;;;;;;;;;;;25.35;37.55;100939.22;5073102;28;1207;-45
2022/05/25 06:03:19;;;;;;;;;;;;;;;23.64;43.08;100939.72;5075941;28;881;-44
2022/05/25 06:05:45;;;;;;;;;;;;;;;23.10;48.43;100942.19;5075788;28;793;-44
2022/05/25 06:08:14;;;;;;;;;;;;;;;24.16;42.83;100943.41;5075515;28;825;-48
2022/05/25 06:10:39;;;;;;;;;;;;;;;24.91;41.61;100943.84;5067151;28;1906;-45
2022/05/25 06:13:05;;;;;;;;;;;;;;;25.27;42.67;100950.84;5075134;28;1243;-44
2022/05/25 06:20:58;;;;;;;;;;;;;;;25.97;39.42;100950.56;5074439;28;635;-45
2022/05/25 06:23:23;;;;;;;;;;;;;;;26.07;39.24;100962.00;5056889;28;831;-51
2022/05/25 06:25:49;;;;;;;;;;;;;;;25.83;39.68;100955.63;5075344;28;1224;-44
2022/05/25 06:28:14;;;;;;;;;;;;;;;26.20;38.71;100966.88;5076050;28;793;-44
2022/05/25 06:30:39;;;;;;;;;;;;;;;26.23;38.91;100968.38;5075555;28;1914;-47
2022/05/25 06:33:05;;;;;;;;;;;;;;;26.03;41.13;100977.66;5075292;28;811;-45
2022/05/25 06:35:31;;;;;;;;;;;;;;;26.25;37.98;100977.97;5075167;28;809;-48
2022/05/25 06:37:56;;;;;;;;;;;;;;;26.28;38.58;100985.72;5075598;28;766;-46
2022/05/25 06:40:21;;;;;;;;;;;;;;;26.38;37.78;100982.00;5075442;28;817;-42
2022/05/25 06:42:48;;;;;;;;;;;;;;;26.44;38.85;100973.25;5075660;28;937;-42
2022/05/25 06:45:14;;;;;;;;;;;;;;;26.70;37.87;100976.69;5071840;28;1089;-43
2022/05/25 06:47:39;;;;;;;;;;;;;;;26.84;37.95;100977.81;5074347;28;1227;-43
2022/05/25 06:50:05;;;;;;;;;;;;;;;26.65;34.59;100983.47;5075223;28;1909;-43
2022/05/25 06:52:30;;;;;;;;;;;;;;;26.80;36.32;100981.88;5074352;28;1306;-47
2022/05/25 06:54:55;;;;;;;;;;;;;;;26.79;37.02;100975.66;5074950;28;1243;-47
2022/05/25 06:57:21;;;;;;;;;;;;;;;26.89;37.65;100978.97;5076389;28;1037;-42
2022/05/25 06:59:46;;;;;;;;;;;;;;;26.71;36.43;100987.31;5078110;28;1092;-48
2022/05/25 07:02:12;;;;;;;;;;;;;;;26.57;37.21;100983.50;5060056;28;1016;-46
2022/05/25 07:04:37;;;;;;;;;;;;;;;26.79;37.44;100989.16;5078226;28;818;-44
2022/05/25 07:07:02;;;;;;;;;;;;;;;26.77;37.66;100993.88;5077741;28;802;-45
2022/05/25 07:09:28;;;;;;;;;;;;;;;26.50;40.34;100995.97;5078199;28;1902;-42
2022/05/25 07:11:53;;;;;;;;;;;;;;;26.90;37.85;100987.91;5078666;28;1029;-43
2022/05/25 07:14:18;;;;;;;;;;;;;;;26.83;37.35;100995.00;5077915;28;1009;-42
2022/05/25 07:16:44;;;;;;;;;;;;;;;26.99;38.82;100989.53;5077307;28;1235;-44
2022/05/25 07:19:09;;;;;;;;;;;;;;;26.86;36.86;100990.13;5073530;28;841;-45
2022/05/25 07:21:35;;;;;;;;;;;;;;;26.90;38.71;100998.72;5079164;28;837;-45
2022/05/25 07:24:00;;;;;;;;;;;;;;;27.07;35.25;100990.56;5078546;28;799;-43
2022/05/25 07:26:26;;;;;;;;;;;;;;;26.97;32.88;100991.59;5076594;28;1227;-46
2022/05/25 07:28:52;;;;;;;;;;;;;;;27.13;36.19;100998.78;5070990;28;1891;-44
2022/05/25 07:31:36;;;;;;;;;;;;;;;27.03;33.13;101000.88;5075795;28;1211;-45
2022/05/25 07:34:08;;;;;;;;;;;;;;;26.71;30.58;100992.69;5077838;28;1179;-41
2022/05/25 07:36:35;;;;;;;;;;;;;;;26.96;34.25;100997.19;5060922;28;909;-41
2022/05/25 07:39:01;;;;;;;;;;;;;;;27.06;33.96;100995.13;5073814;28;1484;-46
2022/05/25 07:41:27;;;;;;;;;;;;;;;26.81;35.90;100997.06;5075961;28;912;-43
2022/05/25 07:43:57;;;;;;;;;;;;;;;27.18;34.45;100995.56;5078271;28;824;-43
2022/05/25 07:46:23;;;;;;;;;;;;;;;26.92;30.98;101006.63;5060532;28;888;-42
2022/05/25 07:48:48;;;;;;;;;;;;;;;27.13;34.23;101014.16;5077950;28;1898;-45
2022/05/25 07:51:13;;;;;;;;;;;;;;;27.12;34.14;101012.47;5077816;28;886;-42
2022/05/25 07:53:57;;;;;;;;;;;;;;;26.94;32.20;101020.81;5077857;28;842;-47
2022/05/25 07:56:26;;;;;;;;;;;;;;;27.15;32.69;101020.22;5070614;28;1159;-44
2022/05/25 07:58:52;;;;;;;;;;;;;;;27.19;33.57;101026.13;5066711;28;1302;-43
2022/05/25 08:01:18;;;;;;;;;;;;;;;26.84;35.50;101019.13;5076307;28;750;-43
2022/05/25 08:06:27;;;;;;;;;;;;;;;27.22;33.86;101015.81;5071516;28;643;-47
2022/05/25 08:08:53;;;;;;;;;;;;;;;27.39;31.54;101026.50;5076065;28;1961;-42
2022/05/25 08:11:20;;;;;;;;;;;;;;;26.99;27.07;101037.31;5056962;28;1108;-41
2022/05/25 08:13:46;;;;;;;;;;;;;;;27.12;29.54;101037.63;5074321;28;1124;-44
2022/05/25 08:16:11;;;;;;;;;;;;;;;27.40;31.34;101036.28;5076609;28;825;-42
2022/05/25 08:18:36;;;;;;;;;;;;;;;26.88;28.05;101041.22;5077705;28;1504;-41
2022/05/25 08:21:02;;;;;;;;;;;;;;;26.94;30.24;101042.41;5077378;28;822;-44
2022/05/25 08:23:27;;;;;;;;;;;;;;;26.69;25.94;101048.72;5077541;28;850;-44
2022/05/25 08:25:52;;;;;;;;;;;;;;;26.63;26.01;101046.69;5058852;28;1231;-44
2022/05/25 08:28:18;;;;;;;;;;;;;;;26.68;26.55;101046.19;5077140;28;796;-46
2022/05/25 08:30:43;;;;;;;;;;;;;;;26.76;25.27;101055.09;5076283;28;1906;-43
2022/05/25 08:33:09;;;;;;;;;;;;;;;26.90;28.14;101055.41;5073690;28;1585;-48
2022/05/25 08:35:34;;;;;;;;;;;;;;;27.24;28.10;101053.44;5071379;28;1155;-45
2022/05/25 08:37:59;;;;;;;;;;;;;;;27.13;30.06;101051.94;5074271;28;742;-45
2022/05/25 08:40:25;;;;;;;;;;;;;;;27.20;30.94;101062.91;5077025;28;1550;-44
2022/05/25 08:42:53;;;;;;;;;;;;;;;27.12;32.14;101063.78;5076981;28;808;-44
2022/05/25 08:45:19;;;;;;;;;;;;;;;25.22;33.65;101063.56;5076780;28;835;-44
2022/05/25 08:47:47;;;;;;;;;;;;;;;24.23;39.24;101064.63;5056418;28;1076;-45
2022/05/25 08:50:13;;;;;;;;;;;;;;;25.25;33.43;101061.41;5077085;28;1993;-45
2022/05/25 08:52:38;;;;;;;;;;;;;;;25.76;28.61;101057.00;5073289;28;1391;-46
2022/05/25 08:55:06;;;;;;;;;;;;;;;26.03;26.97;101049.59;5058437;28;848;-45
2022/05/25 08:57:32;;;;;;;;;;;;;;;25.31;30.73;101052.66;5059356;28;897;-46
2022/05/25 09:00:07;;;;;;;;;;;;;;;24.76;30.58;101054.75;5070338;28;1100;-46
2022/05/25 09:02:39;;;;;;;;;;;;;;;25.41;30.45;101057.06;5076624;28;790;-45
2022/05/25 09:05:06;;;;;;;;;;;;;;;25.79;26.86;101068.28;5076893;28;841;-47
2022/05/25 09:07:32;;;;;;;;;;;;;;;25.73;27.61;101057.31;5056167;28;1073;-45
2022/05/25 09:09:57;;;;;;;;;;;;;;;24.35;33.57;101066.09;5073247;28;1973;-46
2022/05/25 09:12:34;;;;;;;;;;;;;;;24.93;28.86;101065.63;5076977;28;862;-44
2022/05/25 09:15:03;;;;;;;;;;;;;;;25.27;28.88;101062.09;5072874;28;1202;-48
2022/05/25 09:17:32;;;;;;;;;;;;;;;24.45;30.82;101065.97;5072339;28;1124;-46
2022/05/25 09:19:59;;;;;;;;;;;;;;;25.17;27.23;101064.88;5074630;28;1542;-46
2022/05/25 09:22:25;;;;;;;;;;;;;;;24.57;30.63;101064.72;5075861;28;800;-48
2022/05/25 09:24:50;;;;;;;;;;;;;;;24.39;33.41;101054.00;5071914;28;1192;-45
2022/05/25 09:27:16;;;;;;;;;;;;;;;25.59;32.04;101064.19;5055792;28;1419;-46
2022/05/25 09:29:42;;;;;;;;;;;;;;;24.51;33.92;101064.50;5052710;28;1910;-44
2022/05/25 09:32:30;;;;;;;;;;;;;;;24.26;32.67;101061.63;5073087;28;893;-47
2022/05/25 09:35:18;;;;;;;;;;;;;;;25.30;30.64;101059.06;5029152;28;1108;-45
2022/05/25 09:37:53;;;;;;;;;;;;;;;24.02;34.97;101053.19;5062730;28;1091;-44
2022/05/25 09:40:21;;;;;;;;;;;;;;;25.02;32.88;101058.44;5076279;28;818;-41
2022/05/25 09:42:56;;;;;;;;;;;;;;;25.51;29.83;101052.38;5071876;28;1131;-43
2022/05/25 09:45:21;;;;;;;;;;;;;;;23.58;36.96;101052.09;5071676;28;1092;-44
2022/05/25 09:47:47;;;;;;;;;;;;;;;24.72;34.17;101049.84;5072314;28;1294;-42
2022/05/25 09:50:35;;;;;;;;;;;;;;;25.31;31.50;101058.03;5071968;28;1906;-43
2022/05/25 09:53:04;;;;;;;;;;;;;;;23.84;37.94;101056.72;5058078;28;1073;-43
2022/05/25 09:55:33;;;;;;;;;;;;;;;24.88;35.13;101059.84;5057947;28;1360;-43
2022/05/25 09:58:02;;;;;;;;;;;;;;;25.64;33.45;101064.56;5058129;28;822;-42
2022/05/25 10:00:37;;;;;;;;;;;;;;;26.17;32.43;101058.88;5057686;28;786;-45
2022/05/25 10:03:02;;;;;;;;;;;;;;;24.47;35.23;101055.91;5075511;28;802;-48
2022/05/25 10:05:30;;;;;;;;;;;;;;;24.42;36.56;101052.84;5075522;28;794;-49
2022/05/25 10:08:08;;;;;;;;;;;;;;;25.44;33.99;101052.19;5071884;28;1137;-48
2022/05/25 10:10:43;;;;;;;;;;;;;;;26.11;33.22;101049.59;5064420;28;1966;-43
2022/05/25 10:13:11;;;;;;;;;;;;;;;25.37;34.29;101045.78;5071728;28;1475;-49
2022/05/25 10:15:37;;;;;;;;;;;;;;;24.07;39.66;101050.03;5070643;28;1247;-48
2022/05/25 10:18:02;;;;;;;;;;;;;;;25.18;35.69;101039.66;5075712;28;778;-55
2022/05/25 10:20:30;;;;;;;;;;;;;;;25.13;35.01;101046.53;5070473;28;1527;-49
2022/05/25 10:23:00;;;;;;;;;;;;;;;23.68;41.27;101040.44;5075998;28;738;-54
2022/05/25 10:25:32;;;;;;;;;;;;;;;24.85;30.83;101052.09;5068529;28;1302;-47
2022/05/25 10:27:57;;;;;;;;;;;;;;;25.72;32.73;101048.41;5067108;28;957;-50
2022/05/25 10:39:19;;;;;;;;;;;;;;;25.58;35.33;101043.63;5062646;28;1316;-46
2022/05/25 10:41:52;;;;;;;;;;;;;;;23.47;39.09;101041.59;5073300;28;1176;-51
2022/05/25 10:44:20;;;;;;;;;;;;;;;24.08;39.01;101044.50;5061842;28;778;-47
2022/05/25 10:46:48;;;;;;;;;;;;;;;24.61;36.08;101040.22;5061580;28;990;-52
2022/05/25 10:49:33;;;;;;;;;;;;;;;23.27;43.17;101041.69;5053612;28;1898;-53
2022/05/25 10:52:17;;;;;;;;;;;;;;;24.91;37.60;101040.72;5054422;28;1172;-45
2022/05/25 10:54:45;;;;;;;;;;;;;;;26.13;35.19;101036.81;5077057;28;1077;-45
2022/05/25 10:57:10;;;;;;;;;;;;;;;26.39;34.61;101040.34;5077294;28;845;-50
2022/05/25 10:59:48;;;;;;;;;;;;;;;23.94;38.95;101035.16;5079221;28;841;-48
2022/05/25 11:02:20;;;;;;;;;;;;;;;24.02;40.72;101033.53;5061042;28;841;-50
2022/05/25 11:04:52;;;;;;;;;;;;;;;24.60;36.56;101041.19;5079321;28;921;-48
2022/05/25 11:07:33;;;;;;;;;;;;;;;23.30;43.65;101027.94;5064979;28;1068;-51
2022/05/25 11:10:17;;;;;;;;;;;;;;;24.66;38.96;101037.88;5069749;28;1890;-50
2022/05/25 11:12:48;;;;;;;;;;;;;;;25.97;36.45;101037.66;5073615;28;1120;-45
2022/05/25 11:15:16;;;;;;;;;;;;;;;26.40;35.82;101042.88;5059834;28;1063;-47
2022/05/25 11:17:42;;;;;;;;;;;;;;;24.38;39.23;101035.34;5075317;28;1088;-55
2022/05/25 11:20:13;;;;;;;;;;;;;;;23.40;45.11;101040.50;5073940;28;1251;-45
2022/05/25 11:22:45;;;;;;;;;;;;;;;25.02;39.13;101031.53;5074565;28;1035;-51
2022/05/25 11:25:13;;;;;;;;;;;;;;;25.86;37.81;101046.91;5075439;28;1195;-46
2022/05/25 11:27:58;;;;;;;;;;;;;;;26.20;37.85;101049.59;5074532;28;1253;-45
2022/05/25 11:30:47;;;;;;;;;;;;;;;24.18;40.15;101041.75;5076098;28;1961;-46
2022/05/25 11:33:16;;;;;;;;;;;;;;;23.34;45.94;101045.44;5039487;28;1271;-48
2022/05/25 11:35:44;;;;;;;;;;;;;;;24.91;39.84;101046.94;5055203;28;1298;-54
2022/05/25 11:38:28;;;;;;;;;;;;;;;25.91;37.61;101033.78;5055629;28;1455;-47
2022/05/25 11:40:56;;;;;;;;;;;;;;;26.13;38.24;101041.34;5077705;28;1202;-48
2022/05/25 11:43:40;;;;;;;;;;;;;;;24.18;39.83;101047.13;5076437;28;1066;-51
2022/05/25 11:46:08;;;;;;;;;;;;;;;23.84;42.29;101045.97;5074033;28;979;-46
2022/05/25 11:48:53;;;;;;;;;;;;;;;25.38;38.49;101042.06;5077789;28;1906;-47
2022/05/25 11:51:29;;;;;;;;;;;;;;;26.28;36.17;101038.81;5077751;28;1676;-50
2022/05/25 11:54:01;;;;;;;;;;;;;;;26.48;36.20;101039.31;5059990;28;836;-50
2022/05/25 11:56:35;;;;;;;;;;;;;;;26.84;34.99;101029.94;5077490;28;951;-52
2022/05/25 11:59:08;;;;;;;;;;;;;;;24.89;38.17;101029.25;5077954;28;914;-53
2022/05/25 12:02:03;;;;;;;;;;;;;;;24.05;41.78;101027.84;5052604;28;842;-51
2022/05/25 12:04:47;;;;;;;;;;;;;;;25.36;39.59;101030.63;5055817;28;1081;-50
2022/05/25 12:07:18;;;;;;;;;;;;;;;26.03;36.48;101023.50;5077487;28;912;-49
2022/05/25 12:09:44;;;;;;;;;;;;;;;26.45;36.04;101031.56;5073808;28;1953;-54
2022/05/25 12:12:21;;;;;;;;;;;;;;;26.69;35.17;101032.53;5074507;28;1123;-53
2022/05/25 12:14:56;;;;;;;;;;;;;;;24.94;38.23;101024.28;5058652;28;1302;-55
2022/05/25 12:17:40;;;;;;;;;;;;;;;24.22;41.14;101028.88;5075051;28;1049;-54
2022/05/25 12:20:08;;;;;;;;;;;;;;;25.64;36.89;101034.94;5077161;28;1381;-49
2022/05/25 12:22:36;;;;;;;;;;;;;;;25.92;34.61;101032.75;5060182;28;924;-44
2022/05/25 12:25:03;;;;;;;;;;;;;;;23.61;40.74;101029.47;5077077;28;1206;-49
2022/05/25 12:27:35;;;;;;;;;;;;;;;24.72;40.22;101020.25;5059777;28;1145;-60
2022/05/25 12:30:06;;;;;;;;;;;;;;;25.63;37.97;101017.06;5059348;28;1902;-55
2022/05/25 12:32:31;;;;;;;;;;;;;;;26.20;36.33;101028.03;5059516;28;731;-53
2022/05/25 12:34:56;;;;;;;;;;;;;;;26.53;35.96;101028.00;5072222;28;1264;-58
2022/05/25 12:37:25;;;;;;;;;;;;;;;26.56;36.35;101029.53;5055435;28;1109;-53
2022/05/25 12:39:50;;;;;;;;;;;;;;;24.58;37.29;101023.38;5077781;28;761;-54
2022/05/25 12:42:24;;;;;;;;;;;;;;;24.76;38.05;101026.97;5077123;28;873;-52
2022/05/25 12:50:50;;;;;;;;;;;;;;;24.80;36.31;101013.06;5075232;28;1952;-58
2022/05/25 12:53:18;;;;;;;;;;;;;;;24.59;38.25;101018.81;5058449;28;1172;-54
2022/05/25 12:55:44;;;;;;;;;;;;;;;25.53;35.77;101025.28;5074557;28;1202;-49
2022/05/25 12:58:09;;;;;;;;;;;;;;;26.02;34.79;101015.59;5058426;28;1331;-50
2022/05/25 13:00:39;;;;;;;;;;;;;;;26.35;34.83;101012.88;5076332;28;814;-54
2022/05/25 13:03:23;;;;;;;;;;;;;;;26.67;34.41;101010.28;5072284;28;1136;-50
2022/05/25 13:05:50;;;;;;;;;;;;;;;25.56;35.92;101003.38;5075197;28;1119;-45
2022/05/25 13:08:34;;;;;;;;;;;;;;;24.27;41.50;101001.50;5075072;28;1179;-45
2022/05/25 13:10:59;;;;;;;;;;;;;;;25.48;36.99;101004.22;5075524;28;1902;-43
2022/05/25 13:13:45;;;;;;;;;;;;;;;25.64;35.41;101008.81;5075621;28;1068;-47
2022/05/25 13:16:31;;;;;;;;;;;;;;;24.12;42.04;101002.06;5074324;28;1051;-44
2022/05/25 13:18:57;;;;;;;;;;;;;;;25.28;35.60;101003.69;5069904;28;1098;-45
2022/05/25 13:21:33;;;;;;;;;;;;;;;25.22;33.79;100996.25;5057763;28;1429;-43
2022/05/25 13:24:05;;;;;;;;;;;;;;;24.18;39.72;100996.06;5074721;28;841;-48
2022/05/25 13:26:41;;;;;;;;;;;;;;;25.27;36.49;100993.91;5076025;28;1119;-48
2022/05/25 13:29:08;;;;;;;;;;;;;;;24.93;35.62;100998.34;5058938;28;1967;-46